Time;durP1;ratioP1;P1;durP2;ratioP2;P2;SDS_P1;SDS_P2;PMS_P1;PMS_P2;Temp;Humidity;BMP_temperature;BMP_pressure;BME280_temperature;BME280_humidity;BME280_pressure;Samples;Min_cycle;Max_cycle;Signal;HPM_P1;HPM_P2
2021/04/06 00:00:59;;;;;;;2.43;1.47;;;-2.00;99.90;;;;;;5001518;28;20419;-78
2021/04/06 00:03:28;;;;;;;3.97;1.60;;;-1.90;99.90;;;;;;5001007;28;20418;-79
2021/04/06 00:06:01;;;;;;;8.83;1.60;;;-2.00;99.90;;;;;;4999309;28;20412;-79
2021/04/06 00:08:28;;;;;;;2.47;1.40;;;-2.00;99.90;;;;;;5001494;28;20792;-79
2021/04/06 00:10:57;;;;;;;3.17;1.30;;;-2.00;99.90;;;;;;5000706;28;20415;-80
2021/04/06 00:13:32;;;;;;;2.93;1.50;;;-2.00;99.90;;;;;;4999784;28;20445;-79
2021/04/06 00:16:00;;;;;;;2.60;1.00;;;-2.10;99.90;;;;;;5000467;28;20391;-79
2021/04/06 00:18:26;;;;;;;4.33;1.37;;;-2.10;99.90;;;;;;4999753;28;20432;-79
2021/04/06 00:20:57;;;;;;;3.37;1.30;;;-2.20;99.90;;;;;;5000857;28;20433;-80
2021/04/06 00:23:23;;;;;;;9.83;1.60;;;-2.20;99.90;;;;;;4999470;28;20447;-79
2021/04/06 00:25:50;;;;;;;8.53;1.20;;;-2.20;99.90;;;;;;4999200;28;20429;-80
2021/04/06 00:28:28;;;;;;;2.43;1.10;;;-2.00;99.90;;;;;;4999501;28;20418;-79
2021/04/06 00:30:55;;;;;;;1.83;1.30;;;-2.10;99.90;;;;;;4999434;28;20460;-79
2021/04/06 00:33:32;;;;;;;7.20;1.63;;;-2.10;99.90;;;;;;4999155;28;20433;-79
2021/04/06 00:36:01;;;;;;;3.23;1.37;;;-2.10;99.90;;;;;;5000392;28;20804;-79
2021/04/06 00:38:38;;;;;;;2.13;1.20;;;-2.10;99.90;;;;;;4998590;28;20423;-79
2021/04/06 00:41:07;;;;;;;2.50;1.57;;;-2.20;99.90;;;;;;4999150;28;20518;-80
2021/04/06 00:43:44;;;;;;;6.63;1.97;;;-2.20;99.90;;;;;;5000127;28;20904;-81
2021/04/06 00:46:16;;;;;;;1.40;1.03;;;-2.30;99.90;;;;;;5031676;28;20465;-79
2021/04/06 00:48:46;;;;;;;6.53;1.30;;;-2.40;99.90;;;;;;5000351;28;20414;-79
2021/04/06 00:51:13;;;;;;;1.87;1.33;;;-2.40;99.90;;;;;;5031461;28;20414;-79
2021/04/06 00:53:48;;;;;;;3.43;1.70;;;-2.40;99.90;;;;;;4999685;28;20468;-79
2021/04/06 00:56:17;;;;;;;3.03;1.43;;;-2.50;99.90;;;;;;4999963;28;20444;-80
2021/04/06 00:58:43;;;;;;;2.00;1.00;;;-2.60;99.90;;;;;;4999344;28;20497;-79
2021/04/06 01:01:10;;;;;;;3.90;1.30;;;-2.60;99.90;;;;;;4999057;28;20414;-79
2021/04/06 01:03:40;;;;;;;1.10;0.83;;;-2.80;99.90;;;;;;4998423;28;20453;-80
2021/04/06 01:06:07;;;;;;;3.67;1.20;;;-2.90;99.90;;;;;;4996993;28;22092;-79
2021/04/06 01:08:36;;;;;;;1.27;0.90;;;-2.90;99.90;;;;;;4998470;28;20411;-79
2021/04/06 01:11:03;;;;;;;3.57;1.30;;;-3.00;99.90;;;;;;4998092;28;20419;-79
2021/04/06 01:13:30;;;;;;;0.97;0.87;;;-3.00;99.90;;;;;;4996745;28;20781;-79
2021/04/06 01:15:57;;;;;;;3.43;1.00;;;-3.00;99.90;;;;;;4996768;28;20414;-79
2021/04/06 01:18:25;;;;;;;2.30;1.30;;;-3.10;99.90;;;;;;4995928;28;20427;-79
2021/04/06 01:20:52;;;;;;;2.47;1.10;;;-3.20;99.90;;;;;;4997675;28;20415;-79
2021/04/06 01:23:19;;;;;;;1.50;1.20;;;-3.20;99.90;;;;;;4996468;28;20792;-79
2021/04/06 01:25:54;;;;;;;2.87;1.17;;;-3.30;99.90;;;;;;4997849;28;20484;-79
2021/04/06 01:28:22;;;;;;;2.67;1.03;;;-3.20;99.90;;;;;;4998179;28;20426;-79
2021/04/06 01:30:51;;;;;;;3.77;1.47;;;-3.30;99.90;;;;;;4998756;28;20921;-79
2021/04/06 01:33:20;;;;;;;3.90;1.53;;;-3.20;99.90;;;;;;4999034;28;20423;-79
2021/04/06 01:35:47;;;;;;;3.93;1.23;;;-3.10;99.90;;;;;;4997646;28;20423;-79
2021/04/06 01:38:15;;;;;;;1.23;1.13;;;-2.50;99.90;;;;;;4998779;28;20486;-81
2021/04/06 01:40:45;;;;;;;4.70;1.40;;;-3.10;99.90;;;;;;4999385;28;20415;-79
2021/04/06 01:43:13;;;;;;;2.63;1.07;;;-3.00;99.90;;;;;;4997977;28;20434;-79
2021/04/06 01:45:47;;;;;;;1.47;1.00;;;-3.00;99.90;;;;;;4997380;28;20430;-79
2021/04/06 01:48:14;;;;;;;1.50;1.20;;;-2.90;99.90;;;;;;4999004;28;20485;-79
2021/04/06 01:50:52;;;;;;;2.13;1.30;;;-3.00;99.90;;;;;;4999436;28;20541;-79
2021/04/06 01:53:20;;;;;;;1.70;1.10;;;-2.90;99.90;;;;;;4999047;28;20403;-79
2021/04/06 01:56:06;;;;;;;3.63;1.30;;;-2.80;99.90;;;;;;4998809;28;20415;-79
2021/04/06 01:58:33;;;;;;;4.73;1.30;;;-2.80;99.90;;;;;;4999114;28;20731;-81
2021/04/06 02:01:17;;;;;;;5.00;0.93;;;-2.80;99.90;;;;;;4998240;28;20880;-79
2021/04/06 02:03:51;;;;;;;3.80;1.07;;;-2.80;99.90;;;;;;4997932;28;20415;-79
2021/04/06 02:06:17;;;;;;;3.17;1.13;;;-2.80;99.90;;;;;;4999542;28;20430;-79
2021/04/06 02:08:51;;;;;;;4.60;1.20;;;-2.90;99.90;;;;;;4998391;28;20459;-79
2021/04/06 02:11:20;;;;;;;1.80;1.27;;;-2.80;99.90;;;;;;4999785;28;20454;-79
2021/04/06 02:13:46;;;;;;;1.30;1.20;;;-2.80;99.90;;;;;;4998328;28;20425;-79
2021/04/06 02:16:11;;;;;;;2.20;1.27;;;-2.90;99.90;;;;;;4999273;28;20454;-79
2021/04/06 02:18:37;;;;;;;3.90;1.10;;;-2.90;99.90;;;;;;4998920;28;20195;-79
2021/04/06 02:21:05;;;;;;;1.77;1.10;;;-3.00;99.90;;;;;;5030793;28;20198;-79
2021/04/06 02:23:42;;;;;;;3.43;1.47;;;-3.00;99.90;;;;;;4997581;28;20230;-79
2021/04/06 02:26:09;;;;;;;2.33;1.23;;;-3.00;99.90;;;;;;4998538;28;20465;-79
2021/04/06 02:28:35;;;;;;;4.20;1.70;;;-2.90;99.90;;;;;;4999141;28;20410;-80
2021/04/06 02:31:04;;;;;;;1.40;1.03;;;-2.90;99.90;;;;;;4999568;28;20428;-79
2021/04/06 02:33:37;;;;;;;1.77;1.00;;;-2.90;99.90;;;;;;4999504;28;20610;-79
2021/04/06 02:36:06;;;;;;;3.10;1.27;;;-2.80;99.90;;;;;;4997812;28;20414;-79
2021/04/06 02:38:38;;;;;;;3.50;1.50;;;-3.00;99.90;;;;;;4998819;28;20418;-79
2021/04/06 02:41:11;;;;;;;5.10;1.70;;;-3.10;99.90;;;;;;4997932;28;20834;-79
2021/04/06 02:43:54;;;;;;;3.03;1.30;;;-3.10;99.90;;;;;;4999019;28;20876;-80
2021/04/06 02:46:25;;;;;;;1.53;1.23;;;-2.10;99.90;;;;;;4997514;28;20442;-79
2021/04/06 02:48:51;;;;;;;2.90;1.60;;;-3.20;99.90;;;;;;4999366;28;20537;-79
2021/04/06 02:51:17;;;;;;;3.87;1.47;;;-3.20;99.90;;;;;;4997611;28;20423;-79
2021/04/06 02:53:47;;;;;;;2.53;1.60;;;-3.20;99.90;;;;;;4996909;28;20426;-79
2021/04/06 02:56:35;;;;;;;4.40;1.77;;;-3.20;99.90;;;;;;4997257;28;20442;-79
2021/04/06 02:59:21;;;;;;;1.60;1.30;;;-3.30;99.90;;;;;;5001013;28;20435;-79
2021/04/06 03:01:48;;;;;;;3.03;1.63;;;-3.30;99.90;;;;;;5001108;28;20440;-79
2021/04/06 03:04:27;;;;;;;2.23;1.50;;;-3.30;99.90;;;;;;5002545;28;20451;-78
2021/04/06 03:06:57;;;;;;;2.77;1.40;;;-3.20;99.90;;;;;;5003172;28;20580;-79
2021/04/06 03:09:26;;;;;;;3.13;1.67;;;-3.30;99.90;;;;;;5002143;28;20434;-79
2021/04/06 03:11:54;;;;;;;2.50;1.57;;;-3.30;99.90;;;;;;5002225;28;20438;-79
2021/04/06 03:14:24;;;;;;;1.87;1.53;;;-3.30;99.90;;;;;;5001053;28;20419;-79
2021/04/06 03:16:51;;;;;;;3.63;1.40;;;-3.30;99.90;;;;;;5002133;28;20917;-79
2021/04/06 03:19:17;;;;;;;4.37;1.80;;;-3.30;99.90;;;;;;5000678;28;20449;-79
2021/04/06 03:21:43;;;;;;;1.50;1.40;;;-3.30;99.90;;;;;;5000541;28;20913;-79
2021/04/06 03:24:10;;;;;;;2.50;1.33;;;-3.20;99.90;;;;;;5000083;28;20267;-78
2021/04/06 03:26:36;;;;;;;4.73;1.80;;;-3.40;99.90;;;;;;5000573;28;20203;-79
2021/04/06 03:29:03;;;;;;;2.73;2.00;;;-3.40;99.90;;;;;;5000530;28;20462;-79
2021/04/06 03:31:32;;;;;;;4.30;1.70;;;-3.40;99.90;;;;;;5002316;28;20526;-79
2021/04/06 03:33:59;;;;;;;3.20;1.37;;;-3.40;99.90;;;;;;5001111;28;20909;-78
2021/04/06 03:36:32;;;;;;;2.60;1.63;;;-3.50;99.90;;;;;;5000063;28;20462;-79
2021/04/06 03:39:02;;;;;;;2.93;1.73;;;-3.50;99.90;;;;;;5000444;28;20426;-79
2021/04/06 03:41:30;;;;;;;3.67;1.60;;;-3.60;99.90;;;;;;5001510;28;20469;-79
2021/04/06 03:44:10;;;;;;;1.53;1.23;;;-3.60;99.90;;;;;;5001514;28;20440;-79
2021/04/06 03:46:38;;;;;;;3.30;1.80;;;-3.70;99.90;;;;;;5001264;28;20438;-79
2021/04/06 03:49:21;;;;;;;2.07;1.60;;;-3.70;99.90;;;;;;5032500;28;20461;-78
2021/04/06 03:52:07;;;;;;;4.70;1.50;;;-3.80;99.90;;;;;;4999725;28;20413;-79
2021/04/06 03:54:44;;;;;;;4.50;1.53;;;-3.80;99.90;;;;;;5001080;28;20421;-79
2021/04/06 03:57:23;;;;;;;2.40;1.40;;;-3.90;99.90;;;;;;5000246;28;20473;-79
2021/04/06 03:59:49;;;;;;;6.30;1.70;;;-3.90;99.90;;;;;;5001509;28;20720;-80
2021/04/06 04:02:15;;;;;;;5.97;1.57;;;-3.90;99.90;;;;;;5000578;28;20419;-78
2021/04/06 04:04:41;;;;;;;3.10;1.87;;;-3.90;99.90;;;;;;5002559;28;20410;-79
2021/04/06 04:07:07;;;;;;;2.40;1.90;;;-3.90;99.90;;;;;;5001079;28;20207;-79
2021/04/06 04:09:34;;;;;;;4.23;2.67;;;-3.90;99.90;;;;;;5001307;28;20213;-79
2021/04/06 04:11:59;;;;;;;4.63;2.40;;;-3.90;99.90;;;;;;5001229;28;20417;-79
2021/04/06 04:14:25;;;;;;;4.13;2.20;;;-3.80;99.90;;;;;;4999410;28;20506;-78
2021/04/06 04:16:53;;;;;;;2.67;1.43;;;-3.80;99.90;;;;;;4997999;28;20206;-81
2021/04/06 04:19:19;;;;;;;3.90;1.90;;;-3.70;99.90;;;;;;5002440;28;20189;-79
2021/04/06 04:21:45;;;;;;;5.33;2.03;;;-3.80;99.90;;;;;;5001705;28;20515;-79
2021/04/06 04:24:10;;;;;;;4.93;2.27;;;-3.80;99.90;;;;;;5003600;28;20189;-78
2021/04/06 04:26:36;;;;;;;4.13;2.43;;;-3.70;99.90;;;;;;5006862;28;20203;-78
2021/04/06 04:29:02;;;;;;;3.70;1.80;;;-3.80;99.90;;;;;;5017443;28;20198;-79
2021/04/06 04:31:28;;;;;;;3.43;1.40;;;-3.80;99.90;;;;;;5013036;28;20184;-78
2021/04/06 04:33:53;;;;;;;2.00;1.80;;;-3.90;99.90;;;;;;5008819;28;20242;-78
2021/04/06 04:36:19;;;;;;;2.10;1.50;;;-3.90;99.90;;;;;;5000166;28;20663;-78
2021/04/06 04:38:45;;;;;;;1.50;1.27;;;-3.90;99.90;;;;;;4998457;28;20175;-78
2021/04/06 04:41:10;;;;;;;1.67;1.57;;;-3.50;99.90;;;;;;5000287;28;20640;-78
2021/04/06 04:43:36;;;;;;;1.60;1.50;;;-4.00;99.90;;;;;;5005227;28;20178;-79
2021/04/06 04:46:02;;;;;;;4.13;1.60;;;-4.00;99.90;;;;;;5016897;28;20182;-79
2021/04/06 04:48:27;;;;;;;2.60;1.37;;;-4.10;99.90;;;;;;5013944;28;20552;-78
2021/04/06 04:50:53;;;;;;;3.67;1.70;;;-4.10;99.90;;;;;;5032718;28;20185;-78
2021/04/06 04:53:18;;;;;;;2.77;1.77;;;-4.10;99.90;;;;;;5032010;28;20625;-79
2021/04/06 04:55:44;;;;;;;3.30;1.87;;;-4.00;99.90;;;;;;5000164;28;20184;-78
2021/04/06 04:58:10;;;;;;;2.83;1.47;;;-4.10;99.90;;;;;;5000188;28;20214;-78
2021/04/06 05:00:36;;;;;;;2.40;1.87;;;-4.10;99.90;;;;;;4999089;28;20189;-79
2021/04/06 05:03:02;;;;;;;1.67;1.47;;;-4.20;99.90;;;;;;4997707;28;20419;-78
2021/04/06 05:05:28;;;;;;;1.83;1.37;;;-4.20;99.90;;;;;;4998768;28;20239;-78
2021/04/06 05:07:53;;;;;;;3.17;1.70;;;-4.20;99.90;;;;;;4998484;28;20202;-78
2021/04/06 05:10:19;;;;;;;3.20;1.90;;;-4.20;99.90;;;;;;4996608;28;20206;-78
2021/04/06 05:12:48;;;;;;;3.00;1.63;;;-4.10;99.90;;;;;;4996553;28;20186;-78
2021/04/06 05:15:15;;;;;;;2.60;1.70;;;-4.10;99.90;;;;;;4998330;28;20182;-78
2021/04/06 05:17:40;;;;;;;4.37;2.23;;;-4.10;99.90;;;;;;4997729;28;20435;-78
2021/04/06 05:20:08;;;;;;;3.07;2.17;;;-4.10;99.90;;;;;;4998085;28;20512;-78
2021/04/06 05:22:34;;;;;;;3.50;2.07;;;-3.90;99.90;;;;;;4998548;28;20200;-78
2021/04/06 05:25:00;;;;;;;8.97;2.63;;;-3.80;99.90;;;;;;4996458;28;20428;-78
2021/04/06 05:27:25;;;;;;;2.87;1.73;;;-3.80;99.90;;;;;;4996539;28;20445;-78
2021/04/06 05:29:51;;;;;;;4.73;2.07;;;-3.80;99.90;;;;;;4996449;28;20697;-78
2021/04/06 05:32:17;;;;;;;4.07;1.87;;;-3.70;99.90;;;;;;4997746;28;20534;-78
2021/04/06 05:34:43;;;;;;;4.73;2.17;;;-3.60;99.90;;;;;;4997579;28;20419;-78
2021/04/06 05:37:08;;;;;;;3.37;1.83;;;-3.50;99.90;;;;;;4997793;28;20198;-78
2021/04/06 05:39:34;;;;;;;2.10;1.27;;;-3.40;99.90;;;;;;4997952;28;20189;-78
2021/04/06 05:42:00;;;;;;;14.47;4.90;;;-3.30;99.90;;;;;;4996187;28;20281;-78
2021/04/06 05:44:27;;;;;;;5.83;2.53;;;-3.30;99.90;;;;;;4996210;28;20183;-78
2021/04/06 05:46:57;;;;;;;4.23;2.63;;;-3.30;99.90;;;;;;4996696;28;20594;-77
2021/04/06 05:49:26;;;;;;;4.17;2.50;;;-3.30;99.90;;;;;;4997495;28;20976;-78
2021/04/06 05:51:53;;;;;;;2.03;1.33;;;-3.20;99.90;;;;;;4997122;28;20415;-78
2021/04/06 05:54:19;;;;;;;4.23;2.37;;;-3.20;99.90;;;;;;4996513;28;20557;-79
2021/04/06 05:56:45;;;;;;;4.77;1.83;;;-3.10;99.90;;;;;;4998785;28;21043;-78
2021/04/06 05:59:11;;;;;;;3.77;2.10;;;-3.10;99.90;;;;;;4998283;28;20226;-79
2021/04/06 06:01:43;;;;;;;16.27;5.37;;;-2.90;99.90;;;;;;4997799;28;20462;-79
2021/04/06 06:04:10;;;;;;;3.93;2.53;;;-2.90;99.90;;;;;;4999525;28;20403;-80
2021/04/06 06:06:36;;;;;;;1.47;1.30;;;-2.90;99.90;;;;;;4997872;28;20477;-79
2021/04/06 06:09:04;;;;;;;4.37;2.20;;;-2.90;99.90;;;;;;4997562;28;20866;-79
2021/04/06 06:11:31;;;;;;;1.83;1.60;;;-2.80;99.90;;;;;;4998366;28;20612;-79
2021/04/06 06:13:57;;;;;;;4.73;1.80;;;-2.80;99.90;;;;;;4999305;28;20418;-79
2021/04/06 06:16:27;;;;;;;5.83;1.70;;;-2.80;99.90;;;;;;4997738;28;20497;-80
2021/04/06 06:18:58;;;;;;;1.80;1.50;;;-2.80;99.90;;;;;;4998041;28;20429;-80
2021/04/06 06:21:48;;;;;;;5.73;2.43;;;-2.70;99.90;;;;;;4996662;28;20786;-79
2021/04/06 06:24:28;;;;;;;2.83;2.50;;;-2.70;99.90;;;;;;4997010;28;20415;-79
2021/04/06 06:26:58;;;;;;;3.33;2.30;;;-2.70;99.90;;;;;;4999061;28;20522;-79
2021/04/06 06:29:30;;;;;;;5.33;1.93;;;-2.70;99.90;;;;;;4992353;28;20446;-79
2021/04/06 06:31:58;;;;;;;2.07;1.50;;;-2.60;99.90;;;;;;4998311;28;20936;-79
2021/04/06 06:34:26;;;;;;;1.60;1.50;;;-2.50;99.90;;;;;;4999925;28;20418;-79
2021/04/06 06:37:04;;;;;;;5.53;2.97;;;-2.50;99.90;;;;;;5000244;28;20462;-79
2021/04/06 06:39:30;;;;;;;6.63;3.97;;;-2.50;99.90;;;;;;5000773;28;20420;-79
2021/04/06 06:42:11;;;;;;;3.47;1.73;;;-2.40;99.90;;;;;;5000846;28;20425;-79
2021/04/06 06:44:37;;;;;;;1.57;1.40;;;-2.20;99.90;;;;;;5002720;28;20182;-79
2021/04/06 06:47:10;;;;;;;1.97;1.57;;;-2.20;99.90;;;;;;5000463;28;20470;-80
2021/04/06 06:49:38;;;;;;;4.20;1.43;;;-2.30;99.90;;;;;;5000165;28;20492;-79
2021/04/06 06:52:22;;;;;;;5.63;2.10;;;-2.10;99.90;;;;;;5000554;28;20490;-79
2021/04/06 06:55:00;;;;;;;4.53;2.17;;;-2.10;99.90;;;;;;4999412;28;20442;-79
2021/04/06 06:57:35;;;;;;;6.37;1.80;;;-1.80;99.90;;;;;;4997907;28;20481;-77
2021/04/06 07:00:15;;;;;;;6.23;3.17;;;-1.80;99.90;;;;;;4996309;28;20438;-79
2021/04/06 07:02:42;;;;;;;6.17;2.80;;;-1.70;99.90;;;;;;4998320;28;20959;-79
2021/04/06 07:05:12;;;;;;;7.73;2.73;;;-1.70;99.90;;;;;;4998454;28;20418;-79
2021/04/06 07:08:03;;;;;;;2.37;1.30;;;-1.60;99.90;;;;;;5000208;28;20463;-79
2021/04/06 07:10:35;;;;;;;1.53;1.43;;;-1.60;99.90;;;;;;4999991;28;20540;-80
2021/04/06 07:13:21;;;;;;;3.07;1.73;;;-1.60;99.90;;;;;;5001751;28;20796;-79
2021/04/06 07:15:48;;;;;;;3.07;1.90;;;-1.50;99.90;;;;;;5000450;28;20406;-79
2021/04/06 07:18:16;;;;;;;3.50;1.80;;;-1.20;99.90;;;;;;4999762;28;20407;-79
2021/04/06 07:20:51;;;;;;;4.20;1.83;;;-1.00;99.90;;;;;;4999054;28;20426;-78
2021/04/06 07:23:23;;;;;;;5.20;1.87;;;-1.00;99.90;;;;;;5001239;28;20387;-78
2021/04/06 07:25:49;;;;;;;4.27;1.43;;;-1.20;99.90;;;;;;4998669;28;20411;-78
2021/04/06 07:28:16;;;;;;;2.53;2.10;;;-1.20;99.90;;;;;;4999368;28;20419;-79
2021/04/06 07:30:44;;;;;;;4.77;1.47;;;-1.20;99.90;;;;;;4999116;28;20204;-79
2021/04/06 07:33:10;;;;;;;3.73;2.20;;;-1.30;99.90;;;;;;4999943;28;20418;-78
2021/04/06 07:35:37;;;;;;;3.50;1.80;;;-1.20;99.90;;;;;;5001994;28;20171;-79
2021/04/06 07:38:02;;;;;;;6.90;3.07;;;-1.20;99.90;;;;;;5000445;28;20206;-79
2021/04/06 07:40:32;;;;;;;10.83;3.90;;;-1.10;99.90;;;;;;5000432;28;20180;-78
2021/04/06 07:42:57;;;;;;;15.17;5.00;;;-1.00;99.90;;;;;;5001172;28;20171;-78
2021/04/06 07:45:23;;;;;;;11.23;3.13;;;-1.10;99.90;;;;;;5002705;28;20461;-78
2021/04/06 07:47:50;;;;;;;8.53;3.40;;;-0.70;99.90;;;;;;5002154;28;20203;-78
2021/04/06 07:50:35;;;;;;;4.30;2.60;;;-1.10;99.90;;;;;;5000692;28;20679;-78
2021/04/06 07:53:30;;;;;;;10.87;4.93;;;-1.10;99.90;;;;;;5000387;28;20395;-78
2021/04/06 07:55:59;;;;;;;8.87;5.37;;;-0.70;99.90;;;;;;4998497;28;20469;-79
2021/04/06 07:58:52;;;;;;;6.10;2.47;;;-0.40;99.90;;;;;;5000264;28;20434;-78
2021/04/06 08:01:29;;;;;;;7.97;2.03;;;-0.50;99.90;;;;;;4999784;28;20429;-78
2021/04/06 08:03:59;;;;;;;2.10;1.87;;;-0.70;99.90;;;;;;5000874;28;20499;-78
2021/04/06 08:06:26;;;;;;;4.33;2.13;;;-0.60;99.90;;;;;;4998031;28;20199;-78
2021/04/06 08:08:53;;;;;;;4.63;1.73;;;-0.70;99.90;;;;;;4998432;28;20430;-79
2021/04/06 08:11:20;;;;;;;8.47;2.07;;;-0.70;99.90;;;;;;4997392;28;20431;-78
2021/04/06 08:13:47;;;;;;;9.23;3.30;;;-0.70;99.90;;;;;;4999656;28;20432;-78
2021/04/06 08:16:14;;;;;;;8.83;2.93;;;-0.80;99.90;;;;;;4998071;28;20203;-78
2021/04/06 08:18:53;;;;;;;9.60;4.30;;;-0.70;99.90;;;;;;4998660;28;20230;-78
2021/04/06 08:21:20;;;;;;;6.83;2.80;;;-0.40;99.90;;;;;;5000517;28;20196;-78
2021/04/06 08:23:47;;;;;;;13.30;3.73;;;-0.30;99.90;;;;;;4999156;28;20426;-78
2021/04/06 08:26:35;;;;;;;11.27;5.67;;;-0.30;99.90;;;;;;4998001;28;20701;-78
2021/04/06 08:29:23;;;;;;;7.23;2.80;;;-0.50;99.90;;;;;;4998237;28;20275;-78
2021/04/06 08:32:11;;;;;;;17.07;5.47;;;-0.70;99.90;;;;;;4998274;28;20186;-78
2021/04/06 08:34:54;;;;;;;5.83;2.70;;;-0.90;99.90;;;;;;4999089;28;20168;-78
2021/04/06 08:37:34;;;;;;;6.43;3.90;;;-0.90;99.90;;;;;;4998642;28;20439;-78
2021/04/06 08:39:59;;;;;;;6.50;2.53;;;-1.00;99.90;;;;;;4997329;28;20643;-78
2021/04/06 08:42:25;;;;;;;7.17;3.00;;;-0.90;99.90;;;;;;5000091;28;20266;-78
2021/04/06 08:44:56;;;;;;;8.90;3.27;;;-0.80;99.90;;;;;;4998095;28;20191;-78
2021/04/06 08:47:47;;;;;;;8.03;3.33;;;-0.80;99.90;;;;;;4997819;28;20677;-78
2021/04/06 08:50:34;;;;;;;6.00;2.23;;;-0.80;99.90;;;;;;4997882;28;20579;-78
2021/04/06 08:53:00;;;;;;;4.97;1.97;;;-1.00;99.90;;;;;;4996550;28;20171;-79
2021/04/06 08:55:26;;;;;;;6.93;2.90;;;-1.10;99.90;;;;;;4996341;28;20426;-78
2021/04/06 08:57:59;;;;;;;3.93;1.77;;;-1.10;99.90;;;;;;4996385;28;20685;-78
2021/04/06 09:00:26;;;;;;;7.27;2.13;;;-1.10;99.90;;;;;;4998133;28;20172;-78
2021/04/06 09:03:05;;;;;;;7.03;3.83;;;-1.00;99.90;;;;;;4998259;28;20415;-77
2021/04/06 09:05:30;;;;;;;6.40;2.13;;;-0.80;99.90;;;;;;4995940;28;20422;-78
2021/04/06 09:07:56;;;;;;;5.53;2.07;;;-0.60;99.90;;;;;;4996967;28;20192;-78
2021/04/06 09:10:22;;;;;;;3.90;2.57;;;-0.50;99.90;;;;;;4995213;28;20242;-78
2021/04/06 09:12:51;;;;;;;7.40;1.73;;;-0.40;99.90;;;;;;4996984;28;20255;-78
2021/04/06 09:15:20;;;;;;;4.50;2.10;;;-0.40;99.90;;;;;;4996518;28;20206;-77
2021/04/06 09:17:45;;;;;;;3.53;1.97;;;-0.40;99.90;;;;;;4995855;28;20208;-78
2021/04/06 09:20:14;;;;;;;3.67;2.17;;;-0.40;99.90;;;;;;4996443;28;20521;-78
2021/04/06 09:22:42;;;;;;;5.77;1.70;;;-0.50;99.90;;;;;;4996553;28;20191;-78
2021/04/06 09:25:21;;;;;;;5.97;2.20;;;-0.40;99.90;;;;;;4996886;28;20517;-78
2021/04/06 09:27:52;;;;;;;5.13;2.30;;;0.00;99.90;;;;;;4995936;28;20685;-78
2021/04/06 09:30:20;;;;;;;5.83;3.80;;;-0.10;99.90;;;;;;4997037;28;20454;-78
2021/04/06 09:32:48;;;;;;;10.00;4.80;;;0.00;99.90;;;;;;4996518;28;20457;-78
2021/04/06 09:35:17;;;;;;;7.83;3.50;;;0.10;99.90;;;;;;4997637;28;20172;-79
2021/04/06 09:37:43;;;;;;;5.00;2.23;;;0.20;99.90;;;;;;4997012;28;20203;-79
2021/04/06 09:40:10;;;;;;;6.47;4.37;;;0.20;99.90;;;;;;4997750;28;20207;-79
2021/04/06 09:42:36;;;;;;;7.20;3.00;;;0.10;99.90;;;;;;4996872;28;20187;-79
2021/04/06 09:45:04;;;;;;;6.30;2.53;;;0.30;99.90;;;;;;4999345;28;20206;-79
2021/04/06 09:47:35;;;;;;;3.93;1.87;;;0.50;99.90;;;;;;5000179;28;20214;-79
2021/04/06 09:50:03;;;;;;;4.80;2.93;;;0.40;99.90;;;;;;5002017;28;20204;-79
2021/04/06 09:52:29;;;;;;;5.23;2.03;;;0.60;99.90;;;;;;4998827;28;20200;-79
2021/04/06 09:55:06;;;;;;;8.87;3.23;;;0.50;99.90;;;;;;4998484;28;20585;-80
2021/04/06 09:57:35;;;;;;;3.53;1.83;;;0.40;99.90;;;;;;4997292;28;20293;-80
2021/04/06 10:00:08;;;;;;;3.80;2.20;;;0.60;99.90;;;;;;4998507;28;20184;-80
2021/04/06 10:02:34;;;;;;;3.37;2.20;;;0.60;99.90;;;;;;4998124;28;20172;-80
2021/04/06 10:05:00;;;;;;;5.07;2.20;;;0.60;99.90;;;;;;4999403;28;20187;-80
2021/04/06 10:07:30;;;;;;;4.57;2.33;;;0.90;99.90;;;;;;5002056;28;20204;-80
2021/04/06 10:09:57;;;;;;;2.27;2.03;;;0.90;99.90;;;;;;5003047;28;20207;-80
2021/04/06 10:12:24;;;;;;;5.30;2.17;;;0.90;99.90;;;;;;5001634;28;20235;-80
2021/04/06 10:14:51;;;;;;;2.47;1.50;;;1.50;99.90;;;;;;4999786;28;20180;-80
2021/04/06 10:17:32;;;;;;;4.97;1.80;;;2.00;99.90;;;;;;5002333;28;20196;-79
2021/04/06 10:20:05;;;;;;;3.97;2.27;;;2.10;99.90;;;;;;5002146;28;20297;-79
2021/04/06 10:22:47;;;;;;;2.40;2.03;;;2.80;99.90;;;;;;5001136;28;20173;-78
2021/04/06 10:25:15;;;;;;;6.47;3.20;;;2.80;99.90;;;;;;5002564;28;20188;-79
2021/04/06 10:27:47;;;;;;;4.23;3.33;;;2.40;99.90;;;;;;5001842;28;20201;-79
2021/04/06 10:30:26;;;;;;;4.47;2.60;;;1.60;99.90;;;;;;5000590;28;20260;-79
2021/04/06 10:33:01;;;;;;;1.77;1.60;;;1.30;99.90;;;;;;5000997;28;20175;-79
2021/04/06 10:35:30;;;;;;;2.57;1.90;;;1.90;99.90;;;;;;5001139;28;20241;-79
2021/04/06 10:38:02;;;;;;;2.70;2.00;;;2.50;99.90;;;;;;5001759;28;20570;-79
2021/04/06 10:40:42;;;;;;;2.13;1.47;;;2.40;99.90;;;;;;5002643;28;20168;-79
2021/04/06 10:43:19;;;;;;;4.03;1.90;;;2.80;99.90;;;;;;5004503;28;20268;-79
2021/04/06 10:45:50;;;;;;;5.00;2.10;;;3.00;99.90;;;;;;5003508;28;20522;-79
2021/04/06 10:48:23;;;;;;;4.07;1.90;;;2.90;99.90;;;;;;5003227;28;20194;-79
2021/04/06 10:50:53;;;;;;;4.70;2.63;;;2.60;99.90;;;;;;5003067;28;20268;-79
2021/04/06 10:53:21;;;;;;;5.10;1.90;;;2.40;99.90;;;;;;5003842;28;20182;-79
2021/04/06 10:56:08;;;;;;;3.73;1.90;;;1.70;99.90;;;;;;5003329;28;20660;-79
2021/04/06 10:59:00;;;;;;;1.70;1.43;;;1.50;99.90;;;;;;5005447;28;20726;-78
2021/04/06 11:01:45;;;;;;;2.43;1.40;;;1.40;99.90;;;;;;5001421;28;20157;-80
2021/04/06 11:04:14;;;;;;;4.27;1.60;;;1.30;99.90;;;;;;4998911;28;20170;-79
2021/04/06 11:06:58;;;;;;;3.67;1.70;;;2.10;99.90;;;;;;5001523;28;20197;-79
2021/04/06 11:09:34;;;;;;;7.17;2.17;;;2.80;99.90;;;;;;5002896;28;20296;-79
2021/04/06 11:12:00;;;;;;;3.73;1.47;;;3.30;99.90;;;;;;5001581;28;20173;-79
2021/04/06 11:14:27;;;;;;;2.33;1.47;;;3.10;99.90;;;;;;5000590;28;20187;-78
2021/04/06 11:16:54;;;;;;;4.87;1.80;;;2.80;99.90;;;;;;4999588;28;20198;-78
2021/04/06 11:19:38;;;;;;;3.77;1.60;;;2.20;99.90;;;;;;4999864;28;20265;-78
2021/04/06 11:22:11;;;;;;;3.63;2.00;;;2.00;99.90;;;;;;5000365;28;20559;-78
2021/04/06 11:24:38;;;;;;;6.43;2.40;;;1.40;99.90;;;;;;5000777;28;20167;-78
2021/04/06 11:27:06;;;;;;;5.70;2.20;;;2.30;99.90;;;;;;4999796;28;20213;-78
2021/04/06 11:29:36;;;;;;;4.60;2.37;;;3.30;99.90;;;;;;5001619;28;20543;-78
2021/04/06 11:32:11;;;;;;;4.60;2.10;;;3.60;99.90;;;;;;5000478;28;20179;-77
2021/04/06 11:34:37;;;;;;;7.33;2.00;;;3.50;99.90;;;;;;5000837;28;20257;-78
2021/04/06 11:37:04;;;;;;;3.10;1.80;;;3.70;99.90;;;;;;4999544;28;20234;-78
2021/04/06 11:39:33;;;;;;;7.27;1.80;;;3.30;99.90;;;;;;5001212;28;20585;-78
2021/04/06 11:41:59;;;;;;;2.40;1.77;;;2.80;99.90;;;;;;5000496;28;20182;-78
2021/04/06 11:44:25;;;;;;;6.80;1.77;;;2.50;99.90;;;;;;4999208;28;20188;-78
2021/04/06 11:46:52;;;;;;;4.47;2.53;;;2.40;99.90;;;;;;4998415;28;20262;-78
2021/04/06 11:49:18;;;;;;;4.20;2.47;;;2.70;99.90;;;;;;4998862;28;20197;-78
2021/04/06 11:51:46;;;;;;;3.53;2.33;;;3.00;99.90;;;;;;4999429;28;20239;-78
2021/04/06 11:54:13;;;;;;;5.17;2.80;;;2.80;99.90;;;;;;4997631;28;20186;-78
2021/04/06 11:56:39;;;;;;;5.17;2.63;;;3.00;99.90;;;;;;4997296;28;20239;-78
2021/04/06 11:59:05;;;;;;;4.50;2.80;;;2.70;99.90;;;;;;4998627;28;20179;-78
2021/04/06 12:01:32;;;;;;;2.00;1.83;;;2.30;99.90;;;;;;4998035;28;20203;-78
2021/04/06 12:03:58;;;;;;;8.77;3.90;;;2.20;99.90;;;;;;5000199;28;20187;-79
2021/04/06 12:06:25;;;;;;;6.63;2.50;;;2.70;99.90;;;;;;4998573;28;20287;-78
2021/04/06 12:08:51;;;;;;;4.83;3.60;;;2.80;99.90;;;;;;4999595;28;20176;-79
2021/04/06 12:11:17;;;;;;;4.60;2.30;;;3.10;99.90;;;;;;4998762;28;20179;-79
2021/04/06 12:13:43;;;;;;;3.27;2.20;;;4.20;99.90;;;;;;4998446;28;20185;-79
2021/04/06 12:16:09;;;;;;;5.17;2.53;;;5.70;99.90;;;;;;4998167;28;20200;-78
2021/04/06 12:18:35;;;;;;;5.40;2.83;;;4.70;99.90;;;;;;4999546;28;20717;-78
2021/04/06 12:21:01;;;;;;;3.70;2.07;;;3.80;99.90;;;;;;4999736;28;20181;-79
2021/04/06 12:23:26;;;;;;;4.37;2.30;;;2.40;99.90;;;;;;5000369;28;20174;-79
2021/04/06 12:25:55;;;;;;;2.80;2.17;;;1.30;99.90;;;;;;4998818;28;20192;-78
2021/04/06 12:28:21;;;;;;;8.30;3.47;;;1.00;99.90;;;;;;5000891;28;20176;-78
2021/04/06 12:30:47;;;;;;;3.73;2.57;;;0.70;99.90;;;;;;4997894;28;20652;-78
2021/04/06 12:33:12;;;;;;;5.57;3.80;;;1.00;99.90;;;;;;4998934;28;20542;-78
2021/04/06 12:35:38;;;;;;;5.53;2.47;;;1.80;99.90;;;;;;4999850;28;20176;-78
2021/04/06 12:38:04;;;;;;;4.20;2.30;;;2.80;99.90;;;;;;4998646;28;20199;-79
2021/04/06 12:40:32;;;;;;;4.67;2.73;;;2.70;99.90;;;;;;4998677;28;20187;-78
2021/04/06 12:42:58;;;;;;;4.40;2.60;;;2.20;99.90;;;;;;5030071;28;20213;-78
2021/04/06 12:45:23;;;;;;;3.93;2.20;;;1.60;99.90;;;;;;5029896;28;20472;-78
2021/04/06 12:47:49;;;;;;;3.33;2.30;;;1.00;99.90;;;;;;4996487;28;20533;-78
2021/04/06 12:50:16;;;;;;;5.97;2.57;;;0.50;99.90;;;;;;4996163;28;20569;-78
2021/04/06 12:52:41;;;;;;;3.90;2.40;;;0.30;99.90;;;;;;4996629;28;20251;-78
2021/04/06 12:55:08;;;;;;;2.93;2.43;;;0.40;99.90;;;;;;4997355;28;20448;-78
2021/04/06 12:57:33;;;;;;;4.03;3.27;;;0.50;99.90;;;;;;4997428;28;20243;-78
2021/04/06 12:59:59;;;;;;;4.97;3.30;;;1.20;99.90;;;;;;4998384;28;20187;-78
2021/04/06 13:02:25;;;;;;;11.53;5.57;;;1.70;99.90;;;;;;4998972;28;20184;-78
2021/04/06 13:04:51;;;;;;;7.90;2.77;;;2.70;99.90;;;;;;4998315;28;20250;-78